Nearby METAR Reports

 

KTCM - Tacoma,Washington,
Updated: 08/17/2018 2:58am
Clear
Clear
 Wind from calm
Wind: Calm
Temperature: 55°F , 13°C
Dew Point: 54°F , 12°C
Humidity: 94%
Barometer: 30.18 inHg , 1022 hPa
Clouds: Clear
Visibility: 10 miles , 16 km
2018/08/17 09:58 KTCM 170958Z AUTO 00000KT 10SM CLR 13/12 A3018 RMK AO2 SLP223 T01250122 $
KSEA - Seattle,Washington,
Updated: 08/17/2018 2:53am
Clear
Clear
 Wind from SW
Wind: SW 6 mph , 9 km/h
Temperature: 55°F , 13°C
Dew Point: 52°F , 11°C
Humidity: 88%
Barometer: 30.18 inHg , 1022 hPa
Clouds: Clear
Visibility: 10 miles , 16 km
2018/08/17 09:53 KSEA 170953Z 22005KT 10SM CLR 13/11 A3018 RMK AO2 SLP224 T01330106
 
KOLM - Olympia,Washington,
Updated: 08/17/2018 2:54am
Smoke, Clear
Smoke, Clear
 Wind from S
Wind: S 6 mph , 9 km/h
Temperature: 52°F , 11°C
Dew Point: 48°F , 9°C
Humidity: 88%
Barometer: 30.18 inHg , 1022 hPa
Summary: Smoke
Clouds: Clear
Visibility: 10 miles , 16 km
2018/08/17 09:54 KOLM 170954Z AUTO 19005KT 10SM FU CLR 11/09 A3018 RMK AO2 SLP220 T01060094
KHQM - Hoquiam,Washington,
Updated: 08/17/2018 2:53am
Partly cloudy
Partly cloudy
 Wind from W
Wind: W 10 mph , 17 km/h
Temperature: 55°F , 13°C
Dew Point: 54°F , 12°C
Humidity: 94%
Barometer: 30.20 inHg , 1022.7 hPa
Clouds: Partly cloudy
Visibility: 7 miles , 11 km
Cloud details: Partly cloudy 1400 ft
2018/08/17 09:53 KHQM 170953Z AUTO 27009KT 7SM SCT014 13/12 A3020 RMK AO2 SLP229 T01330117
 
KGEG - Spokane,Washington,
Updated: 08/17/2018 2:53am
Haze, Smoke, Mostly cloudy
Haze, Smoke, Mostly cloudy
 Wind from S
Wind: S 6 mph , 9 km/h
Temperature: 72°F , 22°C
Dew Point: 43°F , 6°C
Humidity: 36%
Barometer: 30.02 inHg , 1016.6 hPa
Summary: Haze, Smoke
Clouds: Mostly cloudy
Visibility: 6 miles , 10 km
Cloud details: Few Clouds 1000 ft
Few Clouds 17000 ft
Mostly cloudy 25000 ft
2018/08/17 09:53 KGEG 170953Z 17005KT 6SM HZ FU FEW010 FEW170 BKN250 22/06 A3002 RMK AO2 SLP141 FU FEW010 T02170061
KBLI - Bellingham,Washington,
Updated: 08/17/2018 2:53am
Clear
Clear
 Wind from S
Wind: S 9 mph , 15 km/h, Gust: 17 mph , 28 km/h
Temperature: 57°F , 14°C
Dew Point: 50°F , 10°C
Humidity: 77%
Barometer: 30.13 inHg , 1020.3 hPa
Clouds: Clear
Visibility: 10 miles , 16 km
2018/08/17 09:53 KBLI 170953Z AUTO 18008G15KT 10SM CLR 14/10 A3013 RMK AO2 SLP207 T01390100